Time;durP1;ratioP1;P1;durP2;ratioP2;P2;SDS_P1;SDS_P2;PMS_P1;PMS_P2;Temp;Humidity;BMP_temperature;BMP_pressure;BME280_temperature;BME280_humidity;BME280_pressure;Samples;Min_cycle;Max_cycle;Signal;HPM_P1;HPM_P2
2021/11/04 00:02:16;;;;;;;2.00;1.77;;;;;;;8.24;81.86;98871.84;5024195;28;20415;-92
2021/11/04 00:04:42;;;;;;;2.50;1.73;;;;;;;8.25;82.60;98866.19;5024556;28;20450;-91
2021/11/04 00:07:11;;;;;;;2.00;1.90;;;;;;;8.27;81.81;98868.59;5024818;28;20947;-91
2021/11/04 00:09:36;;;;;;;1.90;1.80;;;;;;;8.32;81.85;98861.38;5030411;28;20423;-91
2021/11/04 00:12:02;;;;;;;1.92;1.90;;;;;;;8.32;82.23;98876.75;5028932;28;20415;-91
2021/11/04 00:14:28;;;;;;;2.20;2.10;;;;;;;8.33;82.28;98879.16;5018593;28;20396;-91
2021/11/04 00:16:53;;;;;;;1.83;1.63;;;;;;;8.36;81.27;98904.00;5033476;28;20411;-91
2021/11/04 00:19:18;;;;;;;2.27;2.17;;;;;;;8.28;81.04;98914.25;5026975;28;20416;-91
2021/11/04 00:21:44;;;;;;;2.50;2.03;;;;;;;8.26;81.37;98924.47;5025073;28;20785;-91
2021/11/04 00:24:09;;;;;;;2.43;2.27;;;;;;;8.20;80.94;98927.44;5026332;28;20406;-91
2021/11/04 00:26:34;;;;;;;2.43;1.77;;;;;;;8.17;81.08;98928.75;5032922;28;20482;-90
2021/11/04 00:29:00;;;;;;;1.83;1.73;;;;;;;8.18;81.24;98935.78;5027499;28;20500;-91
2021/11/04 00:31:26;;;;;;;1.87;1.67;;;;;;;8.14;80.62;98932.00;5024847;28;20407;-91
2021/11/04 00:33:52;;;;;;;3.97;1.50;;;;;;;8.21;81.09;98935.25;5025078;28;20435;-91
2021/11/04 00:36:19;;;;;;;1.95;1.35;;;;;;;8.27;80.98;98933.38;5032496;28;20494;-91
2021/11/04 00:38:46;;;;;;;1.48;1.38;;;;;;;8.29;81.92;98929.38;5018527;28;20955;-92
2021/11/04 00:41:12;;;;;;;1.58;1.55;;;;;;;8.27;81.10;98920.69;5031660;28;20469;-91
2021/11/04 00:43:38;;;;;;;2.10;1.83;;;;;;;8.28;81.60;98916.13;5031938;28;20425;-91
2021/11/04 00:46:03;;;;;;;2.10;1.92;;;;;;;8.24;80.90;98915.81;5020265;28;20408;-91
2021/11/04 00:48:28;;;;;;;1.90;1.90;;;;;;;8.21;80.88;98915.53;5027131;28;20466;-91
2021/11/04 00:50:53;;;;;;;2.47;2.27;;;;;;;8.21;81.45;98912.84;5025857;28;20906;-91
2021/11/04 00:53:19;;;;;;;2.20;2.07;;;;;;;8.25;81.84;98912.06;5023797;28;20492;-90
2021/11/04 00:55:44;;;;;;;2.80;2.23;;;;;;;8.27;81.43;98925.28;5031078;28;20723;-90
2021/11/04 00:58:09;;;;;;;3.10;2.50;;;;;;;8.27;81.45;98930.66;5028669;28;20450;-91
2021/11/04 01:00:35;;;;;;;2.73;2.53;;;;;;;8.24;81.49;98939.31;5028595;28;20403;-90
2021/11/04 01:03:00;;;;;;;2.87;2.60;;;;;;;8.15;81.58;98933.63;5020694;28;20474;-91
2021/11/04 01:05:25;;;;;;;2.97;2.87;;;;;;;8.15;80.20;98949.00;5029340;28;20398;-91
2021/11/04 01:07:51;;;;;;;2.40;2.30;;;;;;;8.18;80.85;98951.16;5028504;28;20805;-91
2021/11/04 01:10:16;;;;;;;2.80;2.60;;;;;;;8.21;80.50;98954.16;5029172;28;20419;-91
2021/11/04 01:12:42;;;;;;;2.67;2.53;;;;;;;8.20;80.71;98959.81;5033130;28;20477;-90
2021/11/04 01:15:07;;;;;;;3.50;3.00;;;;;;;8.20;80.43;98960.59;5018479;28;20806;-90
2021/11/04 01:17:33;;;;;;;2.97;2.83;;;;;;;8.20;81.06;98967.91;5025637;28;20464;-91
2021/11/04 01:19:58;;;;;;;4.60;3.25;;;;;;;8.15;81.10;98970.59;5027306;28;20506;-91
2021/11/04 01:22:24;;;;;;;3.43;3.13;;;;;;;8.14;82.03;98971.66;5021091;28;20843;-91
2021/11/04 01:24:49;;;;;;;3.53;3.33;;;;;;;8.13;81.82;98962.78;5018313;28;20474;-90
2021/11/04 01:27:15;;;;;;;3.67;3.30;;;;;;;8.18;81.76;98959.25;5029495;28;20889;-91
2021/11/04 01:29:40;;;;;;;4.20;3.13;;;;;;;8.20;82.01;98962.53;5024007;28;20413;-91
2021/11/04 01:32:05;;;;;;;4.23;3.40;;;;;;;8.16;81.74;98956.03;5021219;28;20406;-91
2021/11/04 01:34:31;;;;;;;3.92;3.63;;;;;;;8.19;81.85;98952.78;5026403;28;20901;-90
2021/11/04 01:36:56;;;;;;;4.27;3.87;;;;;;;8.18;82.13;98951.16;5029557;28;20838;-91
2021/11/04 01:39:22;;;;;;;4.40;4.00;;;;;;;8.19;81.38;98945.50;5028310;28;20485;-91
2021/11/04 01:41:47;;;;;;;3.90;3.60;;;;;;;8.17;81.19;98950.34;5019410;28;21012;-90
2021/11/04 01:44:12;;;;;;;4.20;3.90;;;;;;;8.19;81.42;98942.81;5032011;28;20414;-90
2021/11/04 01:46:38;;;;;;;4.57;4.00;;;;;;;8.19;82.04;98940.13;5029711;28;20498;-90
2021/11/04 01:49:03;;;;;;;4.85;4.45;;;;;;;8.18;81.91;98938.50;5027957;28;20399;-91
2021/11/04 01:51:29;;;;;;;5.07;4.35;;;;;;;8.16;82.39;98940.66;5028221;28;20416;-90
2021/11/04 01:53:54;;;;;;;4.83;4.43;;;;;;;8.15;82.71;98941.72;5028010;28;20928;-91
2021/11/04 01:56:19;;;;;;;6.03;4.40;;;;;;;8.13;82.42;98941.19;5033378;28;20394;-90
2021/11/04 01:58:45;;;;;;;5.10;3.97;;;;;;;8.10;82.68;98941.69;5021195;28;20463;-90
2021/11/04 02:01:10;;;;;;;4.47;4.10;;;;;;;8.09;82.54;98940.09;5030228;28;20417;-91
2021/11/04 02:03:42;;;;;;;4.43;4.03;;;;;;;8.10;82.09;98935.50;5020648;28;20419;-91
2021/11/04 02:06:26;;;;;;;4.70;4.25;;;;;;;8.10;82.87;98939.00;5033733;28;20388;-91
2021/11/04 02:09:15;;;;;;;4.30;4.00;;;;;;;8.10;82.24;98927.41;5024835;28;20504;-90
2021/11/04 02:12:03;;;;;;;4.28;3.97;;;;;;;8.10;82.11;98917.41;5018390;28;20423;-90
2021/11/04 02:14:32;;;;;;;4.70;4.05;;;;;;;8.09;82.10;98913.09;5031384;28;20502;-89
2021/11/04 02:17:00;;;;;;;6.10;4.38;;;;;;;8.05;81.70;98916.59;5029075;28;20494;-91
2021/11/04 02:19:41;;;;;;;4.28;3.88;;;;;;;7.99;82.29;98923.88;5022062;28;20449;-90
2021/11/04 02:22:14;;;;;;;4.05;3.72;;;;;;;8.01;82.14;98926.28;5019267;28;20423;-90
2021/11/04 02:24:45;;;;;;;5.47;4.10;;;;;;;7.99;81.95;98923.06;5028370;28;20899;-89
2021/11/04 02:27:13;;;;;;;4.50;4.10;;;;;;;8.00;81.59;98933.56;5026018;28;20451;-91
2021/11/04 02:29:40;;;;;;;4.55;3.80;;;;;;;7.97;81.52;98938.69;5026285;28;20399;-90
2021/11/04 02:32:07;;;;;;;3.88;3.58;;;;;;;7.95;81.64;98938.94;5026438;28;20403;-90
2021/11/04 02:34:34;;;;;;;5.40;4.00;;;;;;;7.93;82.09;98940.31;5028724;28;20774;-90
2021/11/04 02:37:00;;;;;;;4.20;3.90;;;;;;;7.89;82.46;98945.41;5027322;28;20458;-91
2021/11/04 02:39:27;;;;;;;4.13;3.83;;;;;;;7.86;82.77;98939.72;5027693;28;20417;-91
2021/11/04 02:41:53;;;;;;;4.00;3.70;;;;;;;7.82;82.49;98945.66;5031282;28;20434;-90
2021/11/04 02:44:19;;;;;;;4.30;3.92;;;;;;;7.81;82.33;98954.00;5022477;28;20429;-91
2021/11/04 02:46:45;;;;;;;4.80;4.40;;;;;;;7.86;82.15;98950.50;5027491;28;20442;-90
2021/11/04 02:49:11;;;;;;;3.73;3.53;;;;;;;7.93;82.43;98962.69;5025841;28;20437;-91
2021/11/04 02:51:37;;;;;;;4.03;3.80;;;;;;;7.96;82.05;98964.88;5030638;28;20430;-91
2021/11/04 02:54:06;;;;;;;3.93;3.50;;;;;;;7.97;81.91;98966.47;5028961;28;20463;-89
2021/11/04 02:57:01;;;;;;;4.25;3.85;;;;;;;8.02;81.48;98977.28;5023723;28;20419;-90
2021/11/04 02:59:27;;;;;;;5.95;4.40;;;;;;;8.01;81.59;98974.84;5012488;28;20404;-90
2021/11/04 03:01:57;;;;;;;4.95;3.80;;;;;;;8.00;81.74;98978.63;5020376;28;20764;-89
2021/11/04 03:04:22;;;;;;;3.83;3.60;;;;;;;8.04;81.62;98985.91;5028090;28;20420;-90
2021/11/04 03:06:49;;;;;;;4.10;3.80;;;;;;;8.04;82.34;98988.63;5030248;28;20407;-89
2021/11/04 03:09:16;;;;;;;4.22;3.83;;;;;;;7.96;82.12;98986.44;5029088;28;20423;-90
2021/11/04 03:11:41;;;;;;;4.70;4.40;;;;;;;7.95;82.48;98981.28;5023124;28;20470;-91
2021/11/04 03:14:07;;;;;;;4.77;4.40;;;;;;;7.96;82.44;98988.31;5024842;28;20476;-90
2021/11/04 03:16:38;;;;;;;4.80;4.50;;;;;;;7.94;82.70;98990.44;5022510;28;20402;-90
2021/11/04 03:19:07;;;;;;;5.27;4.53;;;;;;;7.92;82.54;98990.72;5026837;28;20407;-90
2021/11/04 03:21:33;;;;;;;5.45;4.95;;;;;;;7.93;82.77;98986.16;5023643;28;20412;-91
2021/11/04 03:24:00;;;;;;;4.88;4.57;;;;;;;7.87;82.93;98988.00;5020643;28;20749;-91
2021/11/04 03:26:28;;;;;;;4.90;4.60;;;;;;;7.80;83.63;98995.53;5026431;28;20413;-92
2021/11/04 03:28:55;;;;;;;5.53;5.13;;;;;;;7.76;83.93;99005.22;5028960;28;20411;-91
2021/11/04 03:31:21;;;;;;;5.60;5.20;;;;;;;7.80;83.80;99006.34;5030618;28;20395;-92
2021/11/04 03:33:50;;;;;;;5.65;5.20;;;;;;;7.82;83.58;98996.06;5018782;28;20932;-92
2021/11/04 03:36:19;;;;;;;5.33;4.93;;;;;;;7.80;83.63;99009.81;5024778;28;20452;-91
2021/11/04 03:38:46;;;;;;;5.57;5.15;;;;;;;7.83;83.57;99006.63;5026538;28;20502;-90
2021/11/04 03:41:11;;;;;;;6.32;5.72;;;;;;;7.87;83.47;99016.88;5030174;28;20391;-93
2021/11/04 03:43:37;;;;;;;6.07;5.57;;;;;;;7.79;83.68;99010.09;5021032;28;20407;-91
2021/11/04 03:46:05;;;;;;;6.27;5.67;;;;;;;7.82;83.73;99007.69;5025452;28;20411;-93
2021/11/04 03:48:35;;;;;;;6.70;6.13;;;;;;;7.83;84.11;99001.22;5026808;28;20498;-91
2021/11/04 03:51:01;;;;;;;6.45;5.78;;;;;;;7.76;84.26;98995.25;5029683;28;20502;-91
2021/11/04 03:53:27;;;;;;;5.32;4.82;;;;;;;7.75;84.15;98998.19;5018513;28;20445;-90
2021/11/04 03:55:52;;;;;;;4.53;4.23;;;;;;;7.64;84.16;98996.53;5024552;28;21041;-92
2021/11/04 03:58:19;;;;;;;4.27;3.97;;;;;;;7.66;83.94;98994.38;5030506;28;20766;-90
2021/11/04 04:00:44;;;;;;;3.70;3.50;;;;;;;7.64;84.10;98997.31;5025284;28;20497;-90
2021/11/04 04:03:10;;;;;;;3.37;3.17;;;;;;;7.65;84.25;98998.13;5029168;28;20506;-90
2021/11/04 04:05:35;;;;;;;2.90;2.80;;;;;;;7.52;84.77;98998.59;5024781;28;20413;-89
2021/11/04 04:08:00;;;;;;;3.20;3.00;;;;;;;7.51;84.19;98988.91;5027584;28;20829;-91
2021/11/04 04:10:29;;;;;;;3.58;3.28;;;;;;;7.58;84.44;98986.78;5016853;28;20432;-91
2021/11/04 04:12:55;;;;;;;3.53;3.22;;;;;;;7.63;83.81;98979.53;5026045;28;20833;-90
2021/11/04 04:15:21;;;;;;;3.57;3.23;;;;;;;7.51;83.53;98978.13;5023437;28;20444;-90
2021/11/04 04:17:46;;;;;;;5.20;4.53;;;;;;;7.55;84.61;98980.03;5012754;28;20417;-91
2021/11/04 04:20:12;;;;;;;3.27;3.03;;;;;;;7.61;83.69;98991.63;4998151;28;20514;-90
2021/11/04 04:22:37;;;;;;;2.77;2.67;;;;;;;7.55;84.31;98995.38;5018763;28;20463;-91
2021/11/04 04:25:03;;;;;;;2.67;2.57;;;;;;;7.51;84.57;98997.78;5019004;28;20926;-91
2021/11/04 04:27:29;;;;;;;3.85;3.10;;;;;;;7.59;84.04;98994.59;5015781;28;20560;-92
2021/11/04 04:29:54;;;;;;;3.43;3.23;;;;;;;7.58;84.38;98997.56;5018491;28;20413;-89
2021/11/04 04:32:20;;;;;;;3.43;3.23;;;;;;;7.57;84.06;98991.38;5033540;28;20454;-90
2021/11/04 04:34:45;;;;;;;3.80;3.50;;;;;;;7.62;84.01;98988.69;5016460;28;20419;-91
2021/11/04 04:37:10;;;;;;;3.93;3.73;;;;;;;7.60;84.32;98984.66;5015071;28;20418;-91
2021/11/04 04:39:37;;;;;;;4.30;4.00;;;;;;;7.66;84.01;98989.81;5016161;28;20419;-91
2021/11/04 04:42:03;;;;;;;4.40;4.00;;;;;;;7.65;84.31;98985.47;5016866;28;20422;-91
2021/11/04 04:44:29;;;;;;;5.03;4.47;;;;;;;7.64;83.42;98994.63;5017349;28;20411;-91
2021/11/04 04:46:54;;;;;;;4.43;4.13;;;;;;;7.64;83.25;98991.94;5025199;28;20433;-91
2021/11/04 04:49:19;;;;;;;3.87;3.57;;;;;;;7.64;83.33;98993.84;4996305;28;20431;-91
2021/11/04 04:51:45;;;;;;;4.60;4.30;;;;;;;7.65;83.32;98995.44;5025490;28;20414;-92
2021/11/04 04:54:10;;;;;;;3.80;3.50;;;;;;;7.62;83.09;99002.19;5038072;28;20429;-90
2021/11/04 04:56:35;;;;;;;4.27;3.97;;;;;;;7.61;83.60;98999.72;5029403;28;20488;-91
2021/11/04 04:59:01;;;;;;;4.17;3.63;;;;;;;7.59;83.14;99007.28;5022920;28;20907;-91
2021/11/04 05:01:27;;;;;;;5.97;4.30;;;;;;;7.47;84.14;99018.28;5021493;28;20504;-91
2021/11/04 05:03:52;;;;;;;2.93;2.77;;;;;;;7.45;84.22;99017.69;5029936;28;20497;-91
2021/11/04 05:06:17;;;;;;;2.80;2.63;;;;;;;7.54;83.75;99018.03;5030385;28;20445;-91
2021/11/04 05:08:43;;;;;;;2.60;2.50;;;;;;;7.50;83.29;99017.75;5026674;28;20419;-91
2021/11/04 05:11:08;;;;;;;2.83;2.63;;;;;;;7.45;83.44;99024.97;5030644;28;20426;-91
2021/11/04 05:13:33;;;;;;;3.63;3.33;;;;;;;7.48;83.65;99030.66;5031992;28;20406;-90
2021/11/04 05:15:59;;;;;;;3.93;3.53;;;;;;;7.52;83.68;99031.75;5025874;28;20422;-91
2021/11/04 05:18:24;;;;;;;3.33;3.10;;;;;;;7.54;83.84;99028.81;5032700;28;20418;-91
2021/11/04 05:20:49;;;;;;;3.90;3.60;;;;;;;7.59;84.06;99029.66;5029813;28;20566;-91
2021/11/04 05:23:15;;;;;;;4.37;4.13;;;;;;;7.59;83.09;99028.84;5027215;28;20482;-91
2021/11/04 05:25:40;;;;;;;4.50;4.20;;;;;;;7.57;82.98;99036.38;5031153;28;20894;-91
2021/11/04 05:28:05;;;;;;;7.47;3.95;;;;;;;7.48;83.32;99033.34;5028463;28;20502;-91
2021/11/04 05:30:31;;;;;;;4.33;4.03;;;;;;;7.45;83.75;99041.13;5026236;28;20465;-92
2021/11/04 05:32:57;;;;;;;5.00;4.60;;;;;;;7.37;84.29;99036.25;5006368;28;20549;-91
2021/11/04 05:35:22;;;;;;;5.28;4.80;;;;;;;7.41;83.89;99043.53;5015478;28;20413;-91
2021/11/04 05:37:48;;;;;;;5.32;4.82;;;;;;;7.42;83.92;99037.09;5024249;28;20917;-91
2021/11/04 05:40:14;;;;;;;5.75;5.22;;;;;;;7.46;84.03;99043.59;5027521;28;20411;-91
2021/11/04 05:42:39;;;;;;;5.28;4.88;;;;;;;7.48;83.84;99049.53;5017750;28;21786;-91
2021/11/04 05:45:06;;;;;;;4.82;4.50;;;;;;;7.46;84.29;99051.69;5020420;28;20491;-91
2021/11/04 05:47:31;;;;;;;4.72;4.43;;;;;;;7.54;84.23;99055.78;5022461;28;20435;-91
2021/11/04 05:49:57;;;;;;;4.30;4.00;;;;;;;7.56;83.24;99059.84;5023348;28;20414;-90
2021/11/04 05:52:22;;;;;;;8.50;7.27;;;;;;;7.48;84.13;99063.00;5019887;28;20411;-91
2021/11/04 05:54:47;;;;;;;4.57;4.27;;;;;;;7.50;83.80;99071.66;5023806;28;20753;-91
2021/11/04 05:57:13;;;;;;;5.75;5.25;;;;;;;7.54;84.29;99074.66;5031602;28;20419;-91
2021/11/04 05:59:38;;;;;;;4.77;4.47;;;;;;;7.58;84.13;99078.44;5025824;28;20408;-91
2021/11/04 06:02:03;;;;;;;4.30;4.00;;;;;;;7.62;83.37;99082.25;5025419;28;20457;-90
2021/11/04 06:04:36;;;;;;;4.60;4.20;;;;;;;7.63;83.64;99084.69;5033656;28;20727;-91
2021/11/04 06:07:05;;;;;;;5.07;4.50;;;;;;;7.59;83.27;99094.34;5014647;28;20417;-91
2021/11/04 06:09:31;;;;;;;5.70;5.30;;;;;;;7.51;83.96;99100.22;5019210;28;20430;-90
2021/11/04 06:11:57;;;;;;;8.23;5.30;;;;;;;7.46;83.88;99100.19;5026376;28;20418;-91
2021/11/04 06:14:23;;;;;;;5.28;4.97;;;;;;;7.52;83.72;99101.03;5017514;28;20839;-91
2021/11/04 06:16:49;;;;;;;5.78;5.28;;;;;;;7.45;83.51;99103.94;5017706;28;20934;-91
2021/11/04 06:19:14;;;;;;;5.70;5.20;;;;;;;7.50;83.04;99106.69;5020257;28;20414;-91
2021/11/04 06:21:39;;;;;;;6.07;5.53;;;;;;;7.50;83.78;99108.56;5016444;28;20507;-91
2021/11/04 06:24:05;;;;;;;5.78;5.32;;;;;;;7.58;83.56;99116.16;5025806;28;20421;-90
2021/11/04 06:26:30;;;;;;;6.77;6.17;;;;;;;7.57;83.46;99117.25;5015570;28;20504;-94
2021/11/04 06:28:55;;;;;;;7.53;6.18;;;;;;;7.65;83.86;99116.78;5016939;28;20431;-90
2021/11/04 06:31:20;;;;;;;7.47;6.77;;;;;;;7.52;83.42;99128.00;5018882;28;20539;-90
2021/11/04 06:33:46;;;;;;;9.87;7.77;;;;;;;7.41;84.42;99132.47;5020942;28;20918;-91
2021/11/04 06:36:11;;;;;;;8.90;8.00;;;;;;;7.45;83.89;99132.78;5025111;28;20421;-93
2021/11/04 06:38:36;;;;;;;7.60;7.00;;;;;;;7.51;84.37;99139.88;5023675;28;20412;-90
2021/11/04 06:41:01;;;;;;;9.13;7.73;;;;;;;7.55;84.08;99127.47;5016186;28;20490;-90
2021/11/04 06:43:27;;;;;;;8.87;8.07;;;;;;;7.61;84.40;99137.22;5014354;28;20426;-90
2021/11/04 06:45:55;;;;;;;9.15;8.27;;;;;;;7.59;83.62;99147.47;5028776;28;20893;-91
2021/11/04 06:48:41;;;;;;;9.50;8.60;;;;;;;7.58;84.12;99141.25;5019413;28;20416;-89
2021/11/04 06:51:08;;;;;;;10.50;9.60;;;;;;;7.55;83.95;99144.47;5020421;28;20421;-90
2021/11/04 06:53:35;;;;;;;12.30;10.52;;;;;;;7.56;83.92;99145.28;5017986;28;20418;-90
2021/11/04 06:56:05;;;;;;;12.85;11.55;;;;;;;7.55;84.12;99155.25;5023931;28;20409;-90
2021/11/04 06:58:31;;;;;;;12.25;10.80;;;;;;;7.56;84.12;99161.47;5020204;28;20936;-90
2021/11/04 07:00:59;;;;;;;13.40;10.88;;;;;;;7.62;84.76;99152.34;5007057;28;20415;-90
2021/11/04 07:03:27;;;;;;;12.77;11.38;;;;;;;7.65;83.73;99168.00;5016285;28;20420;-87
2021/11/04 07:06:07;;;;;;;12.40;10.90;;;;;;;7.68;83.76;99162.09;5028037;28;20420;-89
2021/11/04 07:08:40;;;;;;;12.45;11.25;;;;;;;7.70;83.96;99166.19;5018261;28;20434;-85
2021/11/04 07:11:06;;;;;;;15.98;13.10;;;;;;;7.63;84.09;99170.16;5029601;28;20754;-84
2021/11/04 07:13:32;;;;;;;16.52;12.52;;;;;;;7.70;84.21;99174.28;5024662;28;20403;-88
2021/11/04 07:16:00;;;;;;;16.10;12.95;;;;;;;7.78;83.48;99178.34;5028357;28;20422;-88
2021/11/04 07:18:26;;;;;;;14.68;12.88;;;;;;;7.72;84.28;99184.78;5023519;28;20442;-91
2021/11/04 07:21:15;;;;;;;15.73;13.90;;;;;;;7.76;84.30;99194.81;5022968;28;20412;-89
2021/11/04 07:23:45;;;;;;;16.58;14.32;;;;;;;7.78;84.64;99195.34;5021271;28;20484;-89
2021/11/04 07:26:10;;;;;;;19.58;15.15;;;;;;;7.81;84.71;99196.72;5032022;28;20403;-89
2021/11/04 07:28:40;;;;;;;15.50;13.90;;;;;;;7.92;84.02;99201.13;5017811;28;20875;-89
2021/11/04 07:31:10;;;;;;;15.27;13.45;;;;;;;7.93;84.13;99210.84;5032234;28;20395;-90
2021/11/04 07:33:40;;;;;;;17.02;14.27;;;;;;;7.96;83.27;99209.53;5025705;28;20408;-88
2021/11/04 07:36:05;;;;;;;16.43;14.73;;;;;;;7.93;83.55;99218.94;5028186;28;20411;-91
2021/11/04 07:38:33;;;;;;;19.10;15.97;;;;;;;7.91;83.82;99221.06;5028250;28;20506;-91
2021/11/04 07:40:59;;;;;;;16.42;14.30;;;;;;;7.83;84.10;99224.25;5013456;28;20483;-87
2021/11/04 07:43:25;;;;;;;16.87;14.53;;;;;;;7.74;85.15;99228.47;5021617;28;20499;-87
2021/11/04 07:46:11;;;;;;;18.17;13.77;;;;;;;7.84;84.38;99233.97;5023131;28;20411;-81
2021/11/04 07:48:38;;;;;;;16.38;13.98;;;;;;;7.89;84.84;99246.69;5027170;28;20418;-88
2021/11/04 07:51:05;;;;;;;19.23;13.38;;;;;;;7.86;84.11;99245.31;5024877;28;20399;-89
2021/11/04 07:53:30;;;;;;;15.73;13.07;;;;;;;7.83;84.96;99245.84;5017509;28;20416;-88
2021/11/04 07:55:55;;;;;;;15.88;13.00;;;;;;;7.83;85.15;99254.75;5026119;28;20411;-90
2021/11/04 07:58:24;;;;;;;17.57;13.73;;;;;;;7.85;84.98;99251.78;5026103;28;20414;-91
2021/11/04 08:00:49;;;;;;;18.45;14.70;;;;;;;7.90;85.29;99256.41;5020301;28;20839;-88
2021/11/04 08:03:15;;;;;;;18.30;15.15;;;;;;;7.92;84.64;99251.56;5025526;28;20450;-94
2021/11/04 08:05:40;;;;;;;22.40;15.07;;;;;;;7.87;85.22;99256.94;5023578;28;20418;-91
2021/11/04 08:08:06;;;;;;;18.17;14.47;;;;;;;7.76;85.41;99267.63;5022390;28;20417;-87
2021/11/04 08:10:31;;;;;;;20.60;15.00;;;;;;;7.73;86.01;99268.13;5023176;28;20444;-83
2021/11/04 08:13:03;;;;;;;19.40;14.87;;;;;;;7.83;85.23;99268.22;5020613;28;20913;-86
2021/11/04 08:15:28;;;;;;;17.83;14.98;;;;;;;7.74;85.67;99272.44;5023684;28;20858;-81
2021/11/04 08:17:54;;;;;;;17.97;14.80;;;;;;;7.74;85.91;99272.44;5028306;28;20537;-83
2021/11/04 08:20:19;;;;;;;20.10;15.73;;;;;;;7.72;85.82;99274.59;5027157;28;20461;-83
2021/11/04 08:22:44;;;;;;;19.20;15.20;;;;;;;7.71;85.71;99275.66;5027087;28;20422;-80
2021/11/04 08:25:10;;;;;;;20.20;14.80;;;;;;;7.68;86.13;99278.84;5019833;28;20417;-82
2021/11/04 08:27:35;;;;;;;20.37;14.60;;;;;;;7.82;85.81;99284.66;5021159;28;20406;-83
2021/11/04 08:30:04;;;;;;;18.67;14.85;;;;;;;7.87;84.96;99290.09;5042828;28;20407;-83
2021/11/04 08:32:29;;;;;;;18.93;15.40;;;;;;;7.97;85.10;99286.69;5026413;28;20525;-83
2021/11/04 08:34:55;;;;;;;22.03;16.23;;;;;;;7.90;84.69;99289.59;5035034;28;20494;-84
2021/11/04 08:37:21;;;;;;;22.77;16.38;;;;;;;7.97;84.52;99292.09;5027099;28;20487;-84
2021/11/04 08:39:46;;;;;;;23.10;18.87;;;;;;;8.09;84.57;99293.53;5004942;28;20484;-82
2021/11/04 08:42:13;;;;;;;22.43;16.80;;;;;;;8.15;84.20;99300.63;5023588;28;20509;-82
2021/11/04 08:44:38;;;;;;;21.75;15.90;;;;;;;8.09;84.07;99308.91;5016925;28;20416;-81
2021/11/04 08:47:06;;;;;;;22.80;15.87;;;;;;;8.12;84.19;99305.69;5022785;28;20406;-82
2021/11/04 08:49:32;;;;;;;24.77;16.70;;;;;;;8.07;83.94;99313.75;5021009;28;20412;-82
2021/11/04 08:51:57;;;;;;;24.02;16.23;;;;;;;8.09;84.68;99320.53;5017600;28;20405;-81
2021/11/04 08:54:24;;;;;;;22.13;15.32;;;;;;;8.03;84.55;99315.34;5022640;28;20503;-82
2021/11/04 08:56:49;;;;;;;23.77;16.73;;;;;;;8.00;84.88;99324.75;5014745;28;20440;-81
2021/11/04 08:59:15;;;;;;;24.87;17.07;;;;;;;8.12;84.81;99327.28;5017796;28;20435;-82
2021/11/04 09:01:41;;;;;;;23.05;17.00;;;;;;;8.15;84.64;99329.47;5020265;28;20481;-81
2021/11/04 09:04:07;;;;;;;35.80;29.33;;;;;;;8.15;84.65;99334.88;5019133;28;20417;-82
2021/11/04 09:06:33;;;;;;;24.63;18.70;;;;;;;8.05;85.27;99338.28;5018855;28;20880;-82
2021/11/04 09:09:01;;;;;;;29.60;21.80;;;;;;;8.02;85.59;99340.69;5025723;28;20493;-82
2021/11/04 09:11:27;;;;;;;28.77;22.07;;;;;;;8.17;84.62;99344.34;5014903;28;20425;-82
2021/11/04 09:13:52;;;;;;;26.60;19.02;;;;;;;8.19;84.71;99353.00;5017567;28;20414;-82
2021/11/04 09:16:18;;;;;;;28.47;19.47;;;;;;;8.25;84.74;99353.84;5017286;28;20411;-82
2021/11/04 09:18:43;;;;;;;33.33;21.83;;;;;;;8.21;84.54;99366.22;5016233;28;20413;-81
2021/11/04 09:21:08;;;;;;;26.27;20.07;;;;;;;8.18;84.87;99372.97;5017855;28;20415;-81
2021/11/04 09:23:33;;;;;;;26.23;19.07;;;;;;;8.23;84.48;99372.19;5021359;28;20418;-81
2021/11/04 09:25:59;;;;;;;28.60;18.53;;;;;;;8.26;84.99;99374.38;5017646;28;20435;-81
2021/11/04 09:28:24;;;;;;;27.57;20.07;;;;;;;8.24;84.11;99376.50;5029227;28;20418;-81
2021/11/04 09:30:49;;;;;;;27.17;19.03;;;;;;;8.25;84.30;99376.28;5018842;28;20413;-83
2021/11/04 09:33:15;;;;;;;27.73;21.33;;;;;;;8.32;84.51;99382.31;5026433;28;20415;-83
2021/11/04 09:35:41;;;;;;;29.23;19.45;;;;;;;8.32;83.93;99395.00;5019114;28;20416;-82
2021/11/04 09:38:09;;;;;;;27.92;20.42;;;;;;;8.22;84.69;99398.38;5017847;28;20407;-83
2021/11/04 09:40:34;;;;;;;28.90;19.85;;;;;;;8.18;84.76;99402.66;5024184;28;20407;-83
2021/11/04 09:43:00;;;;;;;33.43;20.90;;;;;;;8.09;84.80;99414.97;5016905;28;20463;-83
2021/11/04 09:45:26;;;;;;;29.83;20.97;;;;;;;8.04;84.83;99414.91;5022015;28;20446;-81
2021/11/04 09:47:51;;;;;;;30.13;20.90;;;;;;;8.12;85.15;99414.47;5015889;28;20419;-81
2021/11/04 09:50:19;;;;;;;30.10;21.53;;;;;;;8.13;84.93;99418.81;5031893;28;20410;-82
2021/11/04 09:52:46;;;;;;;27.85;21.27;;;;;;;8.15;84.92;99430.13;5031046;28;20410;-81
2021/11/04 09:55:19;;;;;;;30.33;20.88;;;;;;;8.05;84.97;99427.34;5015005;28;20815;-81
2021/11/04 09:57:47;;;;;;;32.55;22.65;;;;;;;8.10;84.87;99431.97;5019871;28;20418;-81
2021/11/04 10:00:14;;;;;;;29.70;20.40;;;;;;;7.94;85.37;99435.56;5022900;28;20512;-81
2021/11/04 10:02:44;;;;;;;28.45;20.05;;;;;;;7.96;85.08;99433.44;5024447;28;20411;-81
2021/11/04 10:05:20;;;;;;;25.77;20.38;;;;;;;7.98;84.51;99447.47;5025673;28;20756;-80
2021/11/04 10:07:47;;;;;;;28.05;19.92;;;;;;;7.89;84.49;99447.13;5015193;28;20421;-81
2021/11/04 10:10:15;;;;;;;24.80;20.23;;;;;;;7.83;85.11;99448.94;5019187;28;20422;-81
2021/11/04 10:13:02;;;;;;;30.30;22.10;;;;;;;7.96;84.88;99455.00;5023708;28;20779;-81
2021/11/04 10:15:30;;;;;;;27.25;21.02;;;;;;;7.87;84.55;99462.72;5027820;28;20418;-81
2021/11/04 10:18:14;;;;;;;31.27;22.75;;;;;;;8.00;84.43;99467.72;5021714;28;20405;-81
2021/11/04 10:20:41;;;;;;;26.70;20.25;;;;;;;8.04;84.44;99465.34;5016705;28;20420;-81
2021/11/04 10:23:14;;;;;;;27.00;20.85;;;;;;;7.94;84.65;99471.44;5016563;28;20501;-82
2021/11/04 10:25:41;;;;;;;26.10;20.97;;;;;;;7.82;84.92;99470.75;5028679;28;20403;-82
2021/11/04 10:28:29;;;;;;;26.83;20.40;;;;;;;7.90;84.68;99480.31;5021924;28;20440;-83
2021/11/04 10:30:59;;;;;;;24.63;20.92;;;;;;;7.99;84.11;99485.00;5036124;28;20420;-82
2021/11/04 10:33:33;;;;;;;25.33;20.40;;;;;;;8.00;84.25;99483.13;5023291;28;20925;-80
2021/11/04 10:36:00;;;;;;;25.77;20.92;;;;;;;8.03;84.35;99483.44;5022482;28;20426;-82
2021/11/04 10:38:34;;;;;;;27.52;20.70;;;;;;;7.99;84.76;99486.88;5022084;28;20405;-82
2021/11/04 10:40:59;;;;;;;24.15;19.88;;;;;;;8.01;84.23;99490.13;5019177;28;20407;-83
2021/11/04 10:43:25;;;;;;;26.98;19.40;;;;;;;8.00;84.47;99499.31;5017259;28;20541;-81
2021/11/04 10:45:59;;;;;;;25.75;20.80;;;;;;;8.08;83.65;99502.38;5014672;28;20410;-82
2021/11/04 10:48:25;;;;;;;29.92;21.17;;;;;;;8.19;83.42;99501.44;5023724;28;20407;-82
2021/11/04 10:50:51;;;;;;;24.58;20.48;;;;;;;8.26;82.61;99504.75;5022544;28;20430;-82
2021/11/04 10:53:27;;;;;;;24.90;20.38;;;;;;;8.17;83.27;99506.25;5014036;28;20931;-80
2021/11/04 10:56:11;;;;;;;26.08;21.02;;;;;;;8.18;84.07;99512.47;5023492;28;20463;-81
2021/11/04 10:58:37;;;;;;;23.87;19.73;;;;;;;8.22;83.71;99511.72;5017308;28;20535;-83
2021/11/04 11:01:03;;;;;;;22.70;20.00;;;;;;;8.32;82.98;99514.56;5016152;28;20415;-82
2021/11/04 11:03:30;;;;;;;22.70;18.97;;;;;;;8.23;83.18;99518.75;5022742;28;20826;-82
2021/11/04 11:05:58;;;;;;;24.00;19.92;;;;;;;8.22;83.70;99524.41;5035681;28;20409;-83
2021/11/04 11:08:25;;;;;;;27.10;21.77;;;;;;;8.31;83.74;99522.91;5024657;28;20407;-83
2021/11/04 11:10:51;;;;;;;24.35;19.80;;;;;;;8.36;83.08;99522.16;5025159;28;20415;-84
2021/11/04 11:13:17;;;;;;;26.15;19.92;;;;;;;8.40;82.26;99539.50;5009647;28;20418;-82
2021/11/04 11:15:48;;;;;;;26.23;20.50;;;;;;;8.32;83.08;99535.34;5017484;28;20410;-81
2021/11/04 11:18:16;;;;;;;25.05;19.45;;;;;;;8.26;83.05;99542.56;5017702;28;20436;-80
2021/11/04 11:20:44;;;;;;;21.63;19.17;;;;;;;8.23;83.07;99540.34;5026209;28;20403;-80
2021/11/04 11:23:20;;;;;;;23.17;18.60;;;;;;;8.47;82.31;99545.50;5027747;28;20966;-81
2021/11/04 11:25:48;;;;;;;20.65;18.35;;;;;;;8.39;82.44;99538.69;5038054;28;20458;-80
2021/11/04 11:28:14;;;;;;;20.33;17.30;;;;;;;8.38;82.46;99555.13;5023538;28;20415;-80
2021/11/04 11:30:40;;;;;;;19.30;17.30;;;;;;;8.35;82.30;99556.44;5033836;28;20909;-79
2021/11/04 11:33:18;;;;;;;20.50;17.37;;;;;;;8.41;82.20;99554.59;5025660;28;20411;-80
2021/11/04 11:36:07;;;;;;;22.42;18.83;;;;;;;8.47;81.59;99557.13;5029575;28;20395;-80